Unity, Illinois
Current Conditions -  °F | °C
As of 1:55 PM on Wednesday 17 Dec 2014 (Local Time) from KCIR Reporting Station
Clear Clear  
Wind Chill: 40°   Ceiling: Unl
Heat Index: 40°   Visibility: 10mi
Dew Point: 28°   Wind: 0mph
Humidity: 62%   Direction: NA
Pressure: 30.27"   Gusts: NA
Location:  37.23°N, 89.27°W
Report Text: KCIR 171955Z AUTO 00000KT 10SM CLR 05/M02 A3027 RMK AO2 T00451023
Loading
Personal Weather Stations






























Interactive Weather Map New forecast layout! Learn more

10-Day Weather Forecast

Advertisements
Track Severe Weather on mobile